Time;durP1;ratioP1;P1;durP2;ratioP2;P2;SDS_P1;SDS_P2;PMS_P1;PMS_P2;Temp;Humidity;BMP_temperature;BMP_pressure;BME280_temperature;BME280_humidity;BME280_pressure;Samples;Min_cycle;Max_cycle;Signal;HPM_P1;HPM_P2
2022/04/28 00:00:02;;;;;;;6.17;5.47;;;;;;;6.36;96.19;99366.84;5050692;28;20215;-49
2022/04/28 00:02:34;;;;;;;8.03;5.60;;;;;;;6.32;96.68;99370.56;5051072;28;20663;-49
2022/04/28 00:05:03;;;;;;;8.80;4.93;;;;;;;6.51;95.26;99367.53;5050814;28;20214;-49
2022/04/28 00:07:30;;;;;;;6.27;5.23;;;;;;;6.39;95.16;99370.97;5051470;28;20200;-49
2022/04/28 00:09:57;;;;;;;7.87;5.97;;;;;;;6.39;96.15;99363.19;5050652;28;20191;-48
2022/04/28 00:12:24;;;;;;;7.73;6.03;;;;;;;6.42;97.61;99361.22;5050927;28;20222;-49
2022/04/28 00:14:50;;;;;;;7.03;5.00;;;;;;;6.32;96.71;99363.63;5050931;28;20249;-49
2022/04/28 00:17:17;;;;;;;8.60;5.57;;;;;;;6.40;96.60;99365.69;5050831;28;20191;-51
2022/04/28 00:19:44;;;;;;;9.50;5.57;;;;;;;6.53;96.09;99373.44;5050332;28;20219;-49
2022/04/28 00:22:13;;;;;;;6.67;5.27;;;;;;;6.49;97.14;99365.06;5050817;28;20195;-49
2022/04/28 00:24:40;;;;;;;8.30;5.30;;;;;;;6.39;97.37;99376.16;5050971;28;20218;-49
2022/04/28 00:27:06;;;;;;;6.83;5.17;;;;;;;6.38;94.78;99370.16;5049253;28;20207;-49
2022/04/28 00:29:34;;;;;;;7.17;5.50;;;;;;;6.34;95.91;99376.47;5048299;28;20214;-49
2022/04/28 00:32:02;;;;;;;7.73;5.30;;;;;;;6.27;95.30;99375.22;5050841;28;20189;-49
2022/04/28 00:34:47;;;;;;;9.47;5.57;;;;;;;6.31;96.22;99372.34;5047278;28;20687;-49
2022/04/28 00:37:17;;;;;;;8.60;5.07;;;;;;;6.18;95.84;99364.56;5053561;28;20195;-49
2022/04/28 00:39:44;;;;;;;6.80;4.97;;;;;;;6.44;95.99;99374.91;5061931;28;20287;-49
2022/04/28 00:42:12;;;;;;;5.87;4.73;;;;;;;6.33;96.35;99367.88;5052846;28;20287;-49
2022/04/28 00:44:39;;;;;;;7.57;5.40;;;;;;;6.42;97.31;99375.94;5054108;28;20661;-49
2022/04/28 00:47:07;;;;;;;6.23;5.03;;;;;;;6.27;96.42;99373.50;5053534;28;20187;-49
2022/04/28 00:52:21;;;;;;;8.23;4.90;;;;;;;6.13;95.53;99366.63;5054488;28;20202;-49
2022/04/28 00:54:50;;;;;;;6.07;4.80;;;;;;;6.11;94.88;99368.50;5052780;28;20215;-49
2022/04/28 00:57:18;;;;;;;7.97;5.03;;;;;;;6.16;94.84;99368.19;5054253;28;20192;-49
2022/04/28 00:59:46;;;;;;;5.77;4.57;;;;;;;6.14;95.82;99364.88;5052491;28;20691;-52
2022/04/28 01:02:14;;;;;;;7.07;5.10;;;;;;;6.18;94.70;99364.56;5052839;28;20321;-50
2022/04/28 01:04:41;;;;;;;9.03;4.70;;;;;;;6.11;95.58;99370.28;5052667;28;20249;-50
2022/04/28 01:07:08;;;;;;;12.17;4.87;;;;;;;6.16;95.28;99370.78;5052659;28;20209;-49
2022/04/28 01:09:37;;;;;;;5.40;4.67;;;;;;;6.13;94.60;99363.22;5052625;28;20199;-49
2022/04/28 01:12:08;;;;;;;8.23;5.10;;;;;;;6.09;92.05;99360.00;5052726;28;20597;-49
2022/04/28 01:14:35;;;;;;;7.00;5.13;;;;;;;6.17;95.32;99359.50;5052607;28;20710;-49
2022/04/28 01:17:04;;;;;;;6.77;5.00;;;;;;;6.03;94.71;99366.44;5053073;28;20193;-49
2022/04/28 01:19:32;;;;;;;7.47;4.70;;;;;;;6.01;94.51;99363.13;5051725;28;20618;-49
2022/04/28 01:22:01;;;;;;;7.10;5.10;;;;;;;6.05;95.27;99356.78;5045445;28;20227;-50
2022/04/28 01:24:28;;;;;;;5.77;4.83;;;;;;;5.95;94.91;99366.09;5051821;28;20214;-49
2022/04/28 01:26:57;;;;;;;7.03;4.80;;;;;;;5.87;94.66;99368.34;5052210;28;20235;-49
2022/04/28 01:29:24;;;;;;;6.30;4.97;;;;;;;5.89;94.92;99374.28;5052658;28;20559;-49
2022/04/28 01:31:51;;;;;;;13.27;4.67;;;;;;;6.03;95.36;99370.78;5053217;28;20198;-49
2022/04/28 01:34:18;;;;;;;9.03;5.03;;;;;;;6.04;95.62;99370.69;5053021;28;20222;-48
2022/04/28 01:36:45;;;;;;;8.70;5.37;;;;;;;6.08;93.50;99365.28;5054345;28;20184;-48
2022/04/28 01:39:14;;;;;;;8.13;5.13;;;;;;;6.16;91.13;99369.00;5052580;28;20201;-49
2022/04/28 01:41:43;;;;;;;7.30;4.20;;;;;;;6.16;91.84;99365.59;5053162;28;20242;-49
2022/04/28 01:44:28;;;;;;;6.80;4.80;;;;;;;6.02;91.67;99364.78;5053701;28;20215;-49
2022/04/28 01:46:55;;;;;;;7.93;5.03;;;;;;;6.02;92.81;99366.53;5053039;28;20567;-49
2022/04/28 01:49:51;;;;;;;6.27;5.00;;;;;;;5.98;93.84;99362.44;5044535;28;20195;-49
2022/04/28 01:55:30;;;;;;;7.83;4.77;;;;;;;5.91;95.26;99370.63;5052923;28;20204;-50
2022/04/28 01:57:57;;;;;;;7.00;4.63;;;;;;;5.83;93.82;99370.31;5054294;28;20278;-49
2022/04/28 02:00:45;;;;;;;4.83;4.17;;;;;;;5.73;94.01;99364.91;5052922;28;20285;-48
2022/04/28 02:03:13;;;;;;;6.27;5.40;;;;;;;5.75;95.07;99375.19;5052699;28;20207;-49
2022/04/28 02:05:41;;;;;;;8.43;5.27;;;;;;;5.82;96.02;99370.44;5053036;28;20241;-49
2022/04/28 02:08:09;;;;;;;6.37;5.07;;;;;;;5.82;95.70;99367.84;5052616;28;20287;-49
2022/04/28 02:10:37;;;;;;;7.17;5.27;;;;;;;5.84;94.84;99365.97;5052350;28;20185;-49
2022/04/28 02:13:09;;;;;;;9.10;5.03;;;;;;;5.94;94.54;99371.34;5052716;28;20211;-49
2022/04/28 02:15:55;;;;;;;6.33;5.50;;;;;;;5.85;95.00;99380.59;5054239;28;20198;-49
2022/04/28 02:18:40;;;;;;;6.37;5.10;;;;;;;5.86;94.07;99370.09;5053510;28;20337;-49
2022/04/28 02:21:26;;;;;;;6.53;5.27;;;;;;;5.68;93.67;99377.34;5054004;28;20218;-49
2022/04/28 02:23:53;;;;;;;6.37;5.20;;;;;;;5.69;94.42;99373.00;5053774;28;20253;-49
2022/04/28 02:26:21;;;;;;;6.70;4.53;;;;;;;5.57;94.48;99374.63;5052392;28;20188;-49
2022/04/28 02:28:48;;;;;;;6.47;5.10;;;;;;;5.55;94.95;99381.66;5052110;28;20187;-49
2022/04/28 02:31:15;;;;;;;6.43;5.10;;;;;;;5.58;95.39;99377.13;5052447;28;20552;-50
2022/04/28 02:33:42;;;;;;;5.93;4.73;;;;;;;5.66;96.13;99379.22;5052120;28;20221;-49
2022/04/28 02:36:30;;;;;;;8.17;5.50;;;;;;;5.62;95.74;99382.94;5052212;28;20213;-50
2022/04/28 02:38:57;;;;;;;10.87;5.13;;;;;;;5.66;96.10;99380.97;5051762;28;20245;-49
2022/04/28 02:41:25;;;;;;;6.57;5.10;;;;;;;5.65;96.19;99372.38;5052233;28;20219;-49
2022/04/28 02:43:53;;;;;;;5.90;4.80;;;;;;;5.64;95.75;99380.25;5052026;28;20211;-49
2022/04/28 02:46:20;;;;;;;6.60;5.53;;;;;;;5.59;94.64;99378.78;5052091;28;20270;-50
2022/04/28 02:48:59;;;;;;;6.90;4.87;;;;;;;5.61;95.99;99378.69;5051999;28;20210;-49
2022/04/28 02:51:28;;;;;;;7.37;5.07;;;;;;;5.55;97.52;99385.09;5051725;28;20189;-49
2022/04/28 02:53:54;;;;;;;6.13;4.90;;;;;;;5.60;96.57;99380.44;5051724;28;20622;-49
2022/04/28 02:56:22;;;;;;;6.80;4.70;;;;;;;5.76;95.25;99375.09;5051742;28;20242;-49
2022/04/28 02:58:50;;;;;;;6.87;4.93;;;;;;;5.68;95.25;99376.53;5051204;28;20748;-50
2022/04/28 03:01:17;;;;;;;7.37;5.10;;;;;;;5.63;94.33;99378.59;5051690;28;20222;-48
2022/04/28 03:03:44;;;;;;;8.37;5.07;;;;;;;5.84;93.36;99376.34;5051744;28;20236;-49
2022/04/28 03:11:41;;;;;;;8.70;4.90;;;;;;;5.74;93.97;99382.13;5051671;28;20233;-49
2022/04/28 03:14:12;;;;;;;7.37;5.23;;;;;;;5.73;93.16;99385.66;5051379;28;20224;-49
2022/04/28 03:16:40;;;;;;;6.70;4.53;;;;;;;5.79;94.03;99378.41;5051399;28;20632;-49
2022/04/28 03:19:08;;;;;;;5.20;4.60;;;;;;;5.86;93.02;99384.84;5050956;28;20209;-49
2022/04/28 03:21:37;;;;;;;5.87;4.63;;;;;;;5.70;93.56;99378.06;5050931;28;20240;-49
2022/04/28 03:24:07;;;;;;;6.33;4.70;;;;;;;5.81;91.55;99385.16;5051007;28;20225;-49
2022/04/28 03:26:37;;;;;;;7.83;4.73;;;;;;;5.84;91.37;99384.94;5051323;28;20195;-49
2022/04/28 03:29:06;;;;;;;6.60;4.37;;;;;;;5.78;90.60;99380.19;5051000;28;20206;-49
2022/04/28 03:31:34;;;;;;;6.17;4.00;;;;;;;5.92;92.22;99387.03;5051037;28;20188;-49
2022/04/28 03:34:25;;;;;;;8.47;4.40;;;;;;;5.97;91.55;99389.28;5050972;28;20211;-49
2022/04/28 03:36:52;;;;;;;6.17;4.30;;;;;;;5.85;92.48;99384.00;5052366;28;20186;-49
2022/04/28 03:39:29;;;;;;;6.23;4.50;;;;;;;5.82;92.91;99398.94;5050738;28;20191;-49
2022/04/28 03:41:56;;;;;;;5.13;3.80;;;;;;;5.84;90.87;99397.06;5052207;28;20207;-49
2022/04/28 03:44:23;;;;;;;6.30;4.93;;;;;;;5.72;90.39;99398.72;5050918;28;20215;-49
2022/04/28 03:46:51;;;;;;;6.10;5.07;;;;;;;5.69;90.20;99398.91;5050913;28;20214;-49
2022/04/28 03:49:18;;;;;;;8.33;4.63;;;;;;;5.67;90.50;99401.59;5050530;28;20278;-49
2022/04/28 03:51:45;;;;;;;7.30;4.37;;;;;;;5.69;89.91;99397.13;5050780;28;20195;-50
2022/04/28 03:54:12;;;;;;;7.33;4.60;;;;;;;5.62;89.11;99401.06;5050736;28;20207;-50
2022/04/28 03:56:39;;;;;;;7.67;3.93;;;;;;;5.64;90.11;99406.97;5050934;28;20191;-49
2022/04/28 03:59:09;;;;;;;5.37;4.30;;;;;;;5.67;90.04;99398.19;5051703;28;20270;-49
2022/04/28 04:02:10;;;;;;;7.23;4.47;;;;;;;5.78;91.69;99405.25;5018285;28;20203;-49
2022/04/28 04:04:38;;;;;;;6.20;4.60;;;;;;;5.62;92.26;99406.25;5050692;28;20209;-49
2022/04/28 04:07:09;;;;;;;8.30;3.97;;;;;;;5.64;92.24;99416.50;5051540;28;20192;-50
2022/04/28 04:09:36;;;;;;;9.33;4.90;;;;;;;5.73;89.77;99418.50;5058216;28;20214;-49
2022/04/28 04:12:06;;;;;;;9.87;5.50;;;;;;;5.80;89.00;99417.19;5057671;28;20274;-49
2022/04/28 04:14:59;;;;;;;5.63;4.40;;;;;;;6.01;89.13;99425.31;5056151;28;20225;-50
2022/04/28 04:17:45;;;;;;;5.90;4.47;;;;;;;6.06;89.78;99419.81;5057601;28;20524;-49
2022/04/28 04:20:14;;;;;;;7.30;5.00;;;;;;;6.16;87.27;99418.28;5056643;28;20628;-50
2022/04/28 04:22:42;;;;;;;5.97;4.43;;;;;;;6.20;87.83;99424.09;5057228;28;20189;-49
2022/04/28 04:25:09;;;;;;;5.83;4.53;;;;;;;6.09;88.34;99426.56;5057143;28;20296;-49
2022/04/28 04:27:37;;;;;;;6.33;4.70;;;;;;;6.06;89.01;99427.59;5057322;28;20283;-49
2022/04/28 04:33:16;;;;;;;6.73;4.60;;;;;;;6.04;87.89;99432.88;5057232;28;20246;-49
2022/04/28 04:35:43;;;;;;;5.70;4.60;;;;;;;6.07;88.79;99436.22;5057025;28;20195;-50
2022/04/28 04:38:10;;;;;;;5.73;4.30;;;;;;;6.05;88.56;99441.47;5058345;28;20262;-50
2022/04/28 04:40:37;;;;;;;7.23;4.30;;;;;;;6.07;88.21;99447.41;5056619;28;20235;-50
2022/04/28 04:43:05;;;;;;;6.80;4.00;;;;;;;6.49;81.47;99442.88;5056948;28;20190;-49
2022/04/28 04:45:33;;;;;;;4.60;3.80;;;;;;;6.44;86.04;99449.28;5057017;28;20195;-49
2022/04/28 04:48:13;;;;;;;5.33;4.10;;;;;;;6.40;86.39;99460.78;5056961;28;20586;-49
2022/04/28 04:50:46;;;;;;;7.43;4.23;;;;;;;6.47;86.99;99462.03;5056772;28;20191;-50
2022/04/28 04:53:24;;;;;;;5.23;3.63;;;;;;;6.37;88.68;99461.00;5056904;28;20215;-49
2022/04/28 04:55:51;;;;;;;5.97;4.27;;;;;;;6.28;88.81;99468.50;5057048;28;20191;-50
2022/04/28 04:58:18;;;;;;;5.43;4.40;;;;;;;6.27;87.68;99463.38;5056816;28;20207;-49
2022/04/28 05:00:45;;;;;;;5.57;4.20;;;;;;;6.26;87.23;99475.53;5056547;28;20643;-51
2022/04/28 05:03:23;;;;;;;5.80;4.13;;;;;;;6.24;87.01;99476.56;5058028;28;20254;-50
2022/04/28 05:06:09;;;;;;;5.40;3.87;;;;;;;6.22;88.16;99476.69;5058309;28;20219;-52
2022/04/28 05:08:47;;;;;;;4.97;4.17;;;;;;;6.26;87.39;99482.47;5056460;28;20201;-49
2022/04/28 05:11:14;;;;;;;5.93;4.30;;;;;;;6.30;88.07;99482.19;5056817;28;20191;-49
2022/04/28 05:13:57;;;;;;;5.87;4.20;;;;;;;6.35;89.25;99487.03;5056766;28;20215;-49
2022/04/28 05:16:42;;;;;;;4.93;3.87;;;;;;;6.41;89.34;99490.97;5058650;28;20686;-50
2022/04/28 05:19:18;;;;;;;4.63;4.03;;;;;;;6.52;89.02;99485.09;5054763;28;20222;-49
2022/04/28 05:22:07;;;;;;;4.27;3.50;;;;;;;6.53;89.29;99482.38;5033522;28;20223;-51
2022/04/28 05:24:37;;;;;;;6.40;4.27;;;;;;;6.57;88.44;99498.56;5054649;28;20620;-51
2022/04/28 05:27:23;;;;;;;6.77;4.07;;;;;;;6.58;87.95;99497.66;5054890;28;20198;-51
2022/04/28 05:29:49;;;;;;;6.03;4.07;;;;;;;6.62;87.70;99501.69;5054447;28;20230;-50
2022/04/28 05:32:36;;;;;;;6.80;4.43;;;;;;;6.63;87.87;99501.56;5054092;28;20239;-49
2022/04/28 05:35:21;;;;;;;6.07;4.50;;;;;;;6.69;86.82;99502.09;5054551;28;20188;-49
2022/04/28 05:37:49;;;;;;;4.83;3.80;;;;;;;6.77;88.33;99507.59;5053213;28;20206;-49
2022/04/28 05:40:16;;;;;;;6.33;4.50;;;;;;;6.75;88.40;99509.47;5052780;28;20655;-50
2022/04/28 05:45:43;;;;;;;5.03;3.47;;;;;;;6.84;88.01;99516.63;5053079;28;20199;-50
2022/04/28 05:48:15;;;;;;;6.20;4.17;;;;;;;6.89;87.39;99517.13;5053109;28;20559;-50
2022/04/28 05:50:44;;;;;;;5.50;4.37;;;;;;;6.98;86.18;99523.44;5052872;28;20192;-49
2022/04/28 05:53:12;;;;;;;6.10;3.93;;;;;;;7.05;87.29;99519.50;5052857;28;20301;-50
2022/04/28 05:55:41;;;;;;;5.00;4.00;;;;;;;7.08;88.17;99521.06;5053002;28;20283;-50
2022/04/28 05:58:08;;;;;;;7.53;3.87;;;;;;;7.14;87.13;99517.19;5052782;28;20192;-49
2022/04/28 06:00:37;;;;;;;5.17;4.03;;;;;;;7.16;86.22;99523.13;5052399;28;20196;-48
2022/04/28 06:03:06;;;;;;;6.37;4.33;;;;;;;7.20;85.68;99530.59;5052638;28;20269;-48
2022/04/28 06:05:39;;;;;;;5.17;3.73;;;;;;;7.23;85.58;99526.94;5052702;28;20196;-48
2022/04/28 06:08:06;;;;;;;4.27;3.23;;;;;;;7.28;85.06;99524.88;5052547;28;20194;-48
2022/04/28 06:10:34;;;;;;;7.90;3.90;;;;;;;7.38;84.89;99532.84;5052286;28;20197;-48
2022/04/28 06:13:01;;;;;;;6.67;3.80;;;;;;;7.45;83.02;99531.47;5052453;28;20660;-48
2022/04/28 06:15:28;;;;;;;6.37;3.93;;;;;;;7.53;83.04;99538.72;5053884;28;20191;-49
2022/04/28 06:18:07;;;;;;;4.47;3.47;;;;;;;7.71;83.21;99533.16;5053685;28;20200;-48
2022/04/28 06:20:34;;;;;;;5.23;3.53;;;;;;;7.80;81.58;99530.72;5051883;28;20740;-50
2022/04/28 06:23:13;;;;;;;5.30;3.60;;;;;;;7.87;81.73;99535.47;5052594;28;20241;-48
2022/04/28 06:25:47;;;;;;;6.57;3.33;;;;;;;7.94;82.00;99539.28;5052532;28;20207;-48
2022/04/28 06:28:14;;;;;;;4.27;3.37;;;;;;;8.05;81.34;99538.50;5052267;28;20196;-48
2022/04/28 06:30:45;;;;;;;6.33;3.70;;;;;;;8.26;80.43;99533.50;5052129;28;20322;-49
2022/04/28 06:33:21;;;;;;;4.73;3.47;;;;;;;8.42;79.83;99547.03;5052024;28;20769;-48
2022/04/28 06:36:11;;;;;;;4.97;3.50;;;;;;;8.62;78.24;99542.13;5053496;28;20657;-48
2022/04/28 06:38:40;;;;;;;4.00;3.20;;;;;;;8.81;78.27;99552.00;5051809;28;20192;-49
2022/04/28 06:41:12;;;;;;;4.73;3.50;;;;;;;8.96;77.12;99538.75;5052067;28;20691;-48
2022/04/28 06:43:43;;;;;;;4.80;3.23;;;;;;;9.18;78.16;99545.72;5051842;28;20243;-49
2022/04/28 06:46:29;;;;;;;4.97;2.90;;;;;;;9.40;76.00;99549.28;5053458;28;20230;-49
2022/04/28 06:49:04;;;;;;;4.47;3.00;;;;;;;9.58;74.12;99549.59;5053189;28;20199;-48
2022/04/28 06:51:50;;;;;;;5.90;3.37;;;;;;;9.93;64.43;99553.78;5053035;28;20195;-48
2022/04/28 06:54:52;;;;;;;3.90;3.20;;;;;;;10.34;67.25;99553.97;4994700;28;20210;-48
2022/04/28 06:57:25;;;;;;;6.53;3.63;;;;;;;10.70;64.72;99557.09;5025204;28;20570;-49
2022/04/28 06:59:52;;;;;;;5.13;3.13;;;;;;;10.82;63.11;99562.22;5031549;28;20195;-48
2022/04/28 07:02:20;;;;;;;3.87;2.93;;;;;;;10.99;64.69;99568.66;5031491;28;20207;-48
2022/04/28 07:04:51;;;;;;;6.07;3.20;;;;;;;11.14;61.45;99577.78;5048242;28;20261;-49
2022/04/28 07:07:37;;;;;;;4.50;3.13;;;;;;;11.30;57.94;99569.47;5033529;28;20197;-50
2022/04/28 07:10:04;;;;;;;3.70;3.20;;;;;;;11.45;57.59;99576.97;5031360;28;20674;-49
2022/04/28 07:12:34;;;;;;;3.37;3.07;;;;;;;11.51;63.24;99569.41;5031450;28;20185;-48
2022/04/28 07:15:01;;;;;;;4.53;2.90;;;;;;;11.57;63.09;99575.06;5032968;28;20220;-49
2022/04/28 07:17:48;;;;;;;3.00;2.67;;;;;;;11.69;62.04;99576.59;5028460;28;20574;-48
2022/04/28 07:20:15;;;;;;;3.10;2.43;;;;;;;11.80;62.61;99583.50;5030870;28;20207;-48
2022/04/28 07:22:42;;;;;;;3.40;2.93;;;;;;;11.88;59.25;99582.81;5031292;28;20222;-48
2022/04/28 07:25:10;;;;;;;5.40;2.87;;;;;;;11.99;59.45;99587.09;5030916;28;20212;-48
2022/04/28 07:27:38;;;;;;;5.30;3.03;;;;;;;11.99;62.73;99584.47;5047820;28;20394;-49
2022/04/28 07:30:26;;;;;;;6.97;4.73;;;;;;;12.12;56.06;99595.53;5032508;28;20273;-50
2022/04/28 07:32:53;;;;;;;4.63;3.37;;;;;;;12.44;49.63;99589.22;5030905;28;20663;-48
2022/04/28 07:35:23;;;;;;;4.73;3.07;;;;;;;12.54;53.80;99582.19;5032448;28;20196;-48
2022/04/28 07:38:09;;;;;;;3.70;3.13;;;;;;;12.70;54.05;99599.13;5032302;28;20240;-49
2022/04/28 07:41:04;;;;;;;6.60;3.33;;;;;;;12.85;55.52;99596.88;5031022;28;20565;-48
2022/04/28 07:43:33;;;;;;;4.20;3.10;;;;;;;12.93;51.97;99596.97;5046779;28;20221;-48
2022/04/28 07:46:00;;;;;;;3.83;2.80;;;;;;;13.09;55.92;99603.44;5047578;28;20194;-49
2022/04/28 07:48:28;;;;;;;3.30;2.77;;;;;;;13.13;49.41;99592.50;5048352;28;20198;-49
2022/04/28 07:50:55;;;;;;;3.73;3.07;;;;;;;13.25;46.29;99594.94;5050976;28;20647;-48
2022/04/28 07:53:26;;;;;;;4.60;2.97;;;;;;;13.33;47.76;99600.28;5050850;28;20602;-48
2022/04/28 07:56:13;;;;;;;7.10;2.93;;;;;;;13.63;42.87;99594.94;5050727;28;20286;-48
2022/04/28 07:58:44;;;;;;;4.20;3.43;;;;;;;13.72;43.90;99592.25;5050722;28;20587;-51
2022/04/28 08:01:22;;;;;;;4.33;2.90;;;;;;;13.81;44.11;99598.41;5050596;28;20256;-49
2022/04/28 08:03:50;;;;;;;4.47;2.97;;;;;;;13.92;44.14;99607.88;5050672;28;20721;-48
2022/04/28 08:06:17;;;;;;;6.57;3.70;;;;;;;14.02;44.20;99613.06;5050603;28;20191;-48
2022/04/28 08:08:44;;;;;;;3.97;2.90;;;;;;;14.12;42.55;99605.94;5050203;28;20204;-48
2022/04/28 08:11:11;;;;;;;3.57;2.60;;;;;;;14.23;43.09;99609.31;5050421;28;20196;-49
2022/04/28 08:13:38;;;;;;;3.97;2.53;;;;;;;14.23;43.94;99607.50;5050445;28;20318;-48
2022/04/28 08:16:22;;;;;;;3.47;2.40;;;;;;;14.34;42.89;99608.25;5051818;28;20199;-49
2022/04/28 08:18:50;;;;;;;2.60;2.40;;;;;;;14.41;45.21;99606.69;5050280;28;20222;-48
2022/04/28 08:21:26;;;;;;;4.87;2.63;;;;;;;14.54;41.27;99603.66;5050186;28;20215;-48
2022/04/28 08:23:53;;;;;;;3.93;2.80;;;;;;;14.51;41.98;99606.59;5050562;28;20624;-48
2022/04/28 08:26:22;;;;;;;3.00;2.70;;;;;;;14.64;42.30;99609.66;5050730;28;20197;-48
2022/04/28 08:28:50;;;;;;;4.47;2.67;;;;;;;14.68;40.15;99607.56;5050105;28;20194;-48
2022/04/28 08:31:17;;;;;;;3.13;2.33;;;;;;;14.81;42.26;99617.69;5050242;28;20695;-49
2022/04/28 08:33:45;;;;;;;3.20;2.63;;;;;;;14.89;41.13;99621.19;5050298;28;20216;-48
2022/04/28 08:36:13;;;;;;;2.83;2.20;;;;;;;14.88;42.02;99618.72;5050657;28;20246;-49
2022/04/28 08:38:41;;;;;;;3.27;2.40;;;;;;;14.90;42.16;99611.50;5050075;28;20698;-49
2022/04/28 08:41:12;;;;;;;4.40;2.77;;;;;;;14.96;41.63;99620.56;5051635;28;20181;-49
2022/04/28 08:44:07;;;;;;;3.63;2.33;;;;;;;15.07;39.63;99619.50;5051266;28;20722;-49
2022/04/28 08:46:52;;;;;;;4.87;2.80;;;;;;;15.19;36.89;99619.06;5050088;28;20192;-48
2022/04/28 08:49:24;;;;;;;4.23;2.60;;;;;;;15.27;38.63;99628.81;5050087;28;20279;-49
2022/04/28 08:52:08;;;;;;;4.57;2.90;;;;;;;15.32;38.46;99623.06;5050233;28;20197;-49
2022/04/28 08:54:36;;;;;;;4.27;2.57;;;;;;;15.32;37.85;99620.44;5052434;28;20263;-49
2022/04/28 08:57:04;;;;;;;2.77;2.47;;;;;;;15.38;35.62;99618.97;5053825;28;20200;-48
2022/04/28 08:59:32;;;;;;;2.80;2.30;;;;;;;15.34;37.87;99624.56;5054839;28;20181;-48
2022/04/28 09:02:00;;;;;;;3.87;2.70;;;;;;;15.47;37.31;99625.91;5053719;28;20689;-49
2022/04/28 09:04:48;;;;;;;3.13;2.77;;;;;;;15.48;35.55;99635.47;5043721;28;20224;-48
2022/04/28 09:07:35;;;;;;;4.10;2.70;;;;;;;15.52;38.40;99638.63;5055027;28;20204;-49
2022/04/28 09:10:38;;;;;;;3.50;2.50;;;;;;;15.50;36.83;99626.44;4993004;28;20298;-48
2022/04/28 09:16:15;;;;;;;5.13;2.47;;;;;;;15.59;34.91;99639.63;5053597;28;20284;-48
2022/04/28 09:18:42;;;;;;;5.77;2.80;;;;;;;15.68;34.20;99637.84;5053177;28;20684;-48
2022/04/28 09:21:11;;;;;;;6.03;3.70;;;;;;;15.69;35.40;99628.97;5053460;28;20577;-48
2022/04/28 09:23:39;;;;;;;5.90;2.53;;;;;;;15.76;35.92;99633.44;5053245;28;20225;-48
2022/04/28 09:26:07;;;;;;;3.83;2.47;;;;;;;15.74;33.66;99635.41;5053308;28;20207;-48
2022/04/28 09:28:36;;;;;;;4.40;2.63;;;;;;;15.75;32.52;99628.34;5053244;28;20614;-48
2022/04/28 09:31:03;;;;;;;3.40;2.57;;;;;;;15.84;34.62;99634.47;5052932;28;20201;-48
2022/04/28 09:33:37;;;;;;;5.77;2.60;;;;;;;15.85;33.53;99626.38;5054860;28;20301;-48
2022/04/28 09:36:14;;;;;;;5.50;2.30;;;;;;;15.99;34.94;99637.31;5053257;28;20215;-48
2022/04/28 09:42:29;;;;;;;3.80;2.60;;;;;;;16.12;33.20;99627.16;5040684;28;20222;-48
2022/04/28 09:44:45;;;;;;;3.33;2.40;;;;;;;16.21;33.94;99628.81;5052515;28;20217;-49
2022/04/28 09:47:17;;;;;;;3.13;2.63;;;;;;;16.19;32.48;99637.84;5053055;28;20282;-49
2022/04/28 09:49:46;;;;;;;3.77;2.87;;;;;;;16.32;33.81;99632.13;5054096;28;20232;-49
2022/04/28 09:52:33;;;;;;;6.23;2.37;;;;;;;16.41;34.10;99638.19;5054325;28;20682;-47
2022/04/28 09:55:19;;;;;;;3.90;3.00;;;;;;;16.38;33.41;99642.81;5054049;28;20205;-48
2022/04/28 09:58:06;;;;;;;4.13;2.70;;;;;;;16.30;33.37;99632.25;5054094;28;20244;-47
2022/04/28 10:00:34;;;;;;;5.03;3.40;;;;;;;16.43;33.81;99633.59;5052938;28;20677;-48
2022/04/28 10:03:07;;;;;;;4.90;2.70;;;;;;;16.50;34.29;99635.38;5052596;28;20214;-48
2022/04/28 10:05:39;;;;;;;3.17;2.73;;;;;;;16.46;33.59;99638.53;5051908;28;20195;-49
2022/04/28 10:08:26;;;;;;;6.63;3.20;;;;;;;16.30;33.97;99634.91;5053886;28;20322;-48
2022/04/28 10:10:56;;;;;;;4.00;3.27;;;;;;;16.28;33.05;99625.53;5052474;28;20256;-51
2022/04/28 10:13:23;;;;;;;3.73;2.53;;;;;;;16.37;34.90;99630.63;5052629;28;20567;-50
2022/04/28 10:16:00;;;;;;;3.10;2.80;;;;;;;16.51;34.92;99638.88;5052487;28;20216;-47
2022/04/28 10:18:32;;;;;;;4.63;3.10;;;;;;;16.63;33.30;99621.72;5052040;28;20239;-48
2022/04/28 10:21:05;;;;;;;2.90;2.30;;;;;;;16.63;35.06;99645.47;5052367;28;20200;-48
2022/04/28 10:32:54;;;;;;;3.93;2.60;;;;;;;16.86;36.55;99609.66;5053731;28;20180;-48
2022/04/28 10:35:39;;;;;;;5.07;2.30;;;;;;;16.96;32.81;99616.44;5052832;28;20181;-48
2022/04/28 10:38:10;;;;;;;4.77;2.43;;;;;;;17.09;34.42;99610.66;5052607;28;20236;-48
2022/04/28 10:40:39;;;;;;;3.40;2.17;;;;;;;17.17;32.35;99609.78;5052884;28;20185;-47
2022/04/28 10:43:20;;;;;;;4.43;2.33;;;;;;;17.30;32.68;99613.72;5052769;28;20706;-48
2022/04/28 10:45:49;;;;;;;4.07;2.83;;;;;;;17.43;29.93;99602.63;5053161;28;20197;-47
2022/04/28 10:48:29;;;;;;;3.27;2.53;;;;;;;17.43;32.27;99611.34;5053062;28;20187;-47
2022/04/28 10:51:10;;;;;;;3.83;2.77;;;;;;;17.48;30.22;99609.03;5053096;28;20188;-47
2022/04/28 10:53:55;;;;;;;2.83;2.60;;;;;;;17.35;30.52;99616.66;5052766;28;20213;-48
2022/04/28 10:56:24;;;;;;;2.83;2.53;;;;;;;17.20;29.98;99624.47;5052882;28;20243;-48
2022/04/28 10:58:50;;;;;;;2.43;2.17;;;;;;;17.43;32.15;99629.00;5052647;28;20239;-48
2022/04/28 11:01:26;;;;;;;4.20;2.80;;;;;;;17.54;31.38;99620.69;5052842;28;20616;-49
2022/04/28 11:03:56;;;;;;;3.60;2.70;;;;;;;17.46;31.02;99626.03;5052756;28;20233;-48
2022/04/28 11:06:27;;;;;;;3.47;2.73;;;;;;;17.49;31.61;99631.78;5052987;28;20211;-48
2022/04/28 11:08:55;;;;;;;3.60;2.70;;;;;;;17.45;32.47;99614.66;5052442;28;20548;-48
2022/04/28 11:11:29;;;;;;;2.50;2.10;;;;;;;17.62;32.38;99623.31;5052655;28;20178;-47
2022/04/28 11:13:58;;;;;;;3.30;2.67;;;;;;;17.53;30.76;99621.69;5052579;28;20295;-49
2022/04/28 11:16:26;;;;;;;3.50;2.40;;;;;;;17.70;32.51;99615.34;5052145;28;20208;-48
2022/04/28 11:18:54;;;;;;;2.53;2.30;;;;;;;17.86;29.12;99608.31;5051429;28;20206;-48
2022/04/28 11:21:22;;;;;;;3.43;2.20;;;;;;;17.90;30.36;99612.28;5052586;28;20227;-48
2022/04/28 11:23:51;;;;;;;2.67;2.43;;;;;;;17.97;31.38;99620.34;5050983;28;20256;-49
2022/04/28 11:26:30;;;;;;;4.53;2.83;;;;;;;17.87;30.72;99612.63;5051124;28;20540;-48
2022/04/28 11:29:20;;;;;;;4.07;2.50;;;;;;;17.85;30.27;99615.44;5052227;28;20607;-48
2022/04/28 11:31:47;;;;;;;4.23;2.73;;;;;;;17.96;30.07;99601.00;5052494;28;20195;-48
2022/04/28 11:34:14;;;;;;;5.37;2.70;;;;;;;17.97;30.21;99599.19;5052125;28;20286;-53
2022/04/28 11:36:41;;;;;;;7.33;2.63;;;;;;;18.01;32.73;99597.88;5047845;28;20672;-49
2022/04/28 11:39:09;;;;;;;3.53;2.50;;;;;;;18.07;30.76;99606.91;5047503;28;20197;-48
2022/04/28 11:41:40;;;;;;;5.53;2.50;;;;;;;18.07;30.02;99613.00;5050647;28;20201;-49
2022/04/28 11:44:09;;;;;;;3.97;2.60;;;;;;;18.25;32.87;99610.09;5046366;28;20608;-49
2022/04/28 11:46:38;;;;;;;7.33;2.43;;;;;;;18.28;31.97;99608.91;5046593;28;20256;-49
2022/04/28 11:49:05;;;;;;;2.60;2.40;;;;;;;18.27;30.21;99604.63;5051027;28;20203;-49
2022/04/28 11:51:35;;;;;;;2.33;2.13;;;;;;;18.25;29.36;99596.88;5046524;28;20201;-49
2022/04/28 11:54:03;;;;;;;2.50;2.30;;;;;;;18.49;33.28;99602.13;5050990;28;20212;-48
2022/04/28 11:56:33;;;;;;;4.43;3.03;;;;;;;18.61;32.53;99603.34;5051341;28;20191;-48
2022/04/28 11:59:05;;;;;;;3.97;2.67;;;;;;;18.67;30.55;99599.16;5050943;28;20194;-48
2022/04/28 12:01:35;;;;;;;2.93;2.40;;;;;;;18.69;31.74;99608.56;5051306;28;20278;-48
2022/04/28 12:04:02;;;;;;;4.07;2.50;;;;;;;18.76;29.01;99595.44;5051048;28;20221;-48
2022/04/28 12:06:29;;;;;;;3.40;2.50;;;;;;;18.89;29.60;99594.81;5051161;28;20273;-48
2022/04/28 12:08:56;;;;;;;3.90;2.73;;;;;;;18.93;29.52;99589.97;5051056;28;20194;-49
2022/04/28 12:14:26;;;;;;;6.00;2.87;;;;;;;18.98;29.12;99596.41;5051244;28;20207;-49
2022/04/28 12:19:53;;;;;;;3.03;2.67;;;;;;;19.15;31.05;99598.84;5050711;28;20207;-51
2022/04/28 12:22:25;;;;;;;5.37;2.80;;;;;;;19.11;30.37;99594.94;5050841;28;20196;-50
2022/04/28 12:24:52;;;;;;;4.67;2.37;;;;;;;19.11;30.28;99593.13;5050964;28;20199;-48
2022/04/28 12:27:18;;;;;;;2.70;2.17;;;;;;;19.14;30.39;99602.50;5050842;28;20191;-49
2022/04/28 12:29:53;;;;;;;4.77;2.50;;;;;;;19.03;29.17;99595.84;5053565;28;20229;-48
2022/04/28 12:32:23;;;;;;;3.23;2.47;;;;;;;18.93;30.66;99590.81;5054775;28;20201;-49
2022/04/28 12:35:01;;;;;;;3.67;2.40;;;;;;;19.20;32.46;99585.09;5054885;28;20218;-49
2022/04/28 12:37:29;;;;;;;3.93;2.13;;;;;;;19.33;31.75;99596.66;5055288;28;20271;-48
2022/04/28 12:39:58;;;;;;;3.33;2.33;;;;;;;19.54;30.42;99588.97;5055056;28;20664;-48